sensor_id;sensor_type;location;lat;lon;timestamp;temperature;humidity
26803;DHT22;14378;51.796;5.808;2023-02-16T00:06:05;7.30;99.90
26803;DHT22;14378;51.796;5.808;2023-02-16T00:08:06;7.30;99.90
26803;DHT22;14378;51.796;5.808;2023-02-16T00:10:08;7.30;99.90
26803;DHT22;14378;51.796;5.808;2023-02-16T00:12:18;7.30;99.90
26803;DHT22;14378;51.796;5.808;2023-02-16T00:14:41;7.20;99.90
26803;DHT22;14378;51.796;5.808;2023-02-16T00:16:45;7.20;99.90
26803;DHT22;14378;51.796;5.808;2023-02-16T00:18:47;7.30;99.90
26803;DHT22;14378;51.796;5.808;2023-02-16T00:20:48;7.20;99.90
26803;DHT22;14378;51.796;5.808;2023-02-16T00:22:50;7.20;99.90
26803;DHT22;14378;51.796;5.808;2023-02-16T00:24:51;7.20;99.90
26803;DHT22;14378;51.796;5.808;2023-02-16T00:26:52;7.10;99.90
26803;DHT22;14378;51.796;5.808;2023-02-16T00:28:55;7.20;99.90
26803;DHT22;14378;51.796;5.808;2023-02-16T00:31:00;7.10;99.90
26803;DHT22;14378;51.796;5.808;2023-02-16T00:33:01;7.10;99.90
26803;DHT22;14378;51.796;5.808;2023-02-16T00:35:12;7.10;99.90
26803;DHT22;14378;51.796;5.808;2023-02-16T00:37:15;7.10;99.90
26803;DHT22;14378;51.796;5.808;2023-02-16T00:39:16;7.10;99.90
26803;DHT22;14378;51.796;5.808;2023-02-16T00:41:21;7.10;99.90
26803;DHT22;14378;51.796;5.808;2023-02-16T00:43:41;7.10;99.90
26803;DHT22;14378;51.796;5.808;2023-02-16T00:45:42;7.00;99.90
26803;DHT22;14378;51.796;5.808;2023-02-16T00:47:47;7.00;99.90
26803;DHT22;14378;51.796;5.808;2023-02-16T00:49:52;7.00;99.90
26803;DHT22;14378;51.796;5.808;2023-02-16T00:51:54;7.00;99.90
26803;DHT22;14378;51.796;5.808;2023-02-16T00:53:55;7.00;99.90
26803;DHT22;14378;51.796;5.808;2023-02-16T00:55:55;7.00;99.90
26803;DHT22;14378;51.796;5.808;2023-02-16T00:58:17;6.90;99.90
26803;DHT22;14378;51.796;5.808;2023-02-16T01:03:19;6.90;99.90
26803;DHT22;14378;51.796;5.808;2023-02-16T01:05:22;6.80;99.90
26803;DHT22;14378;51.796;5.808;2023-02-16T01:07:23;6.80;99.90
26803;DHT22;14378;51.796;5.808;2023-02-16T01:09:48;6.80;99.90
26803;DHT22;14378;51.796;5.808;2023-02-16T01:12:13;6.70;99.90
26803;DHT22;14378;51.796;5.808;2023-02-16T01:14:17;6.70;99.90
26803;DHT22;14378;51.796;5.808;2023-02-16T01:16:26;6.70;99.90
26803;DHT22;14378;51.796;5.808;2023-02-16T01:18:27;6.70;99.90
26803;DHT22;14378;51.796;5.808;2023-02-16T01:20:28;6.70;99.90
26803;DHT22;14378;51.796;5.808;2023-02-16T01:22:29;6.70;99.90
26803;DHT22;14378;51.796;5.808;2023-02-16T01:24:33;6.70;99.90
26803;DHT22;14378;51.796;5.808;2023-02-16T01:26:41;6.70;99.90
26803;DHT22;14378;51.796;5.808;2023-02-16T01:28:44;6.70;99.90
26803;DHT22;14378;51.796;5.808;2023-02-16T01:30:45;6.70;99.90
26803;DHT22;14378;51.796;5.808;2023-02-16T01:32:47;6.60;99.90
26803;DHT22;14378;51.796;5.808;2023-02-16T01:34:51;6.60;99.90
26803;DHT22;14378;51.796;5.808;2023-02-16T01:36:53;6.70;99.90
26803;DHT22;14378;51.796;5.808;2023-02-16T01:38:54;6.70;99.90
26803;DHT22;14378;51.796;5.808;2023-02-16T01:43:26;6.60;99.90
26803;DHT22;14378;51.796;5.808;2023-02-16T01:45:33;6.60;99.90
26803;DHT22;14378;51.796;5.808;2023-02-16T01:47:57;6.60;99.90
26803;DHT22;14378;51.796;5.808;2023-02-16T01:50:24;6.60;99.90
26803;DHT22;14378;51.796;5.808;2023-02-16T01:52:41;6.60;99.90
26803;DHT22;14378;51.796;5.808;2023-02-16T02:02:02;6.60;99.90
26803;DHT22;14378;51.796;5.808;2023-02-16T02:04:25;6.60;99.90
26803;DHT22;14378;51.796;5.808;2023-02-16T02:06:46;6.50;99.90
26803;DHT22;14378;51.796;5.808;2023-02-16T02:08:48;6.50;99.90
26803;DHT22;14378;51.796;5.808;2023-02-16T02:11:06;6.50;99.90
26803;DHT22;14378;51.796;5.808;2023-02-16T02:13:39;6.50;99.90
26803;DHT22;14378;51.796;5.808;2023-02-16T02:15:44;6.50;99.90
26803;DHT22;14378;51.796;5.808;2023-02-16T02:17:47;6.50;99.90
26803;DHT22;14378;51.796;5.808;2023-02-16T02:27:08;6.40;99.90
26803;DHT22;14378;51.796;5.808;2023-02-16T02:29:22;6.40;99.90
26803;DHT22;14378;51.796;5.808;2023-02-16T02:31:49;6.40;99.90
26803;DHT22;14378;51.796;5.808;2023-02-16T02:34:27;6.30;99.90
26803;DHT22;14378;51.796;5.808;2023-02-16T02:44:04;6.30;99.90
26803;DHT22;14378;51.796;5.808;2023-02-16T02:46:16;6.30;99.90
26803;DHT22;14378;51.796;5.808;2023-02-16T02:48:20;6.30;99.90
26803;DHT22;14378;51.796;5.808;2023-02-16T02:52:34;6.30;99.90
26803;DHT22;14378;51.796;5.808;2023-02-16T02:54:37;6.30;99.90
26803;DHT22;14378;51.796;5.808;2023-02-16T02:59:36;6.20;99.90
26803;DHT22;14378;51.796;5.808;2023-02-16T03:02:01;6.30;99.90
26803;DHT22;14378;51.796;5.808;2023-02-16T03:04:03;6.20;99.90
26803;DHT22;14378;51.796;5.808;2023-02-16T03:06:13;6.20;99.90
26803;DHT22;14378;51.796;5.808;2023-02-16T03:08:18;6.20;99.90
26803;DHT22;14378;51.796;5.808;2023-02-16T03:10:24;6.20;99.90
26803;DHT22;14378;51.796;5.808;2023-02-16T03:12:45;6.20;99.90
26803;DHT22;14378;51.796;5.808;2023-02-16T03:14:50;6.20;99.90
26803;DHT22;14378;51.796;5.808;2023-02-16T03:16:59;6.20;99.90
26803;DHT22;14378;51.796;5.808;2023-02-16T03:19:20;6.20;99.90
26803;DHT22;14378;51.796;5.808;2023-02-16T03:21:39;6.20;99.90
26803;DHT22;14378;51.796;5.808;2023-02-16T03:24:02;6.20;99.90
26803;DHT22;14378;51.796;5.808;2023-02-16T03:26:24;6.20;99.90
26803;DHT22;14378;51.796;5.808;2023-02-16T03:28:47;6.20;99.90
26803;DHT22;14378;51.796;5.808;2023-02-16T03:31:11;6.20;99.90
26803;DHT22;14378;51.796;5.808;2023-02-16T03:33:13;6.20;99.90
26803;DHT22;14378;51.796;5.808;2023-02-16T03:35:15;6.20;99.90
26803;DHT22;14378;51.796;5.808;2023-02-16T03:37:21;6.10;99.90
26803;DHT22;14378;51.796;5.808;2023-02-16T03:39:27;6.10;99.90
26803;DHT22;14378;51.796;5.808;2023-02-16T03:41:49;6.10;99.90
26803;DHT22;14378;51.796;5.808;2023-02-16T03:43:51;6.10;99.90
26803;DHT22;14378;51.796;5.808;2023-02-16T03:45:52;6.10;99.90
26803;DHT22;14378;51.796;5.808;2023-02-16T03:47:54;6.10;99.90
26803;DHT22;14378;51.796;5.808;2023-02-16T03:49:55;6.10;99.90
26803;DHT22;14378;51.796;5.808;2023-02-16T03:51:56;6.10;99.90
26803;DHT22;14378;51.796;5.808;2023-02-16T03:53:57;6.00;99.90
26803;DHT22;14378;51.796;5.808;2023-02-16T03:55:57;6.00;99.90
26803;DHT22;14378;51.796;5.808;2023-02-16T03:57:59;6.00;99.90
26803;DHT22;14378;51.796;5.808;2023-02-16T04:00:00;6.00;99.90
26803;DHT22;14378;51.796;5.808;2023-02-16T04:02:01;6.00;99.90
26803;DHT22;14378;51.796;5.808;2023-02-16T04:04:02;6.00;99.90
26803;DHT22;14378;51.796;5.808;2023-02-16T04:06:03;6.00;99.90
26803;DHT22;14378;51.796;5.808;2023-02-16T04:08:05;6.00;99.90
26803;DHT22;14378;51.796;5.808;2023-02-16T04:10:06;6.00;99.90
26803;DHT22;14378;51.796;5.808;2023-02-16T04:12:08;6.00;99.90
26803;DHT22;14378;51.796;5.808;2023-02-16T04:14:29;6.00;99.90
26803;DHT22;14378;51.796;5.808;2023-02-16T04:16:35;6.00;99.90
26803;DHT22;14378;51.796;5.808;2023-02-16T04:18:36;6.00;99.90
26803;DHT22;14378;51.796;5.808;2023-02-16T04:20:38;6.00;99.90
26803;DHT22;14378;51.796;5.808;2023-02-16T04:22:39;6.00;99.90
26803;DHT22;14378;51.796;5.808;2023-02-16T04:24:39;6.00;99.90
26803;DHT22;14378;51.796;5.808;2023-02-16T04:26:40;6.00;99.90
26803;DHT22;14378;51.796;5.808;2023-02-16T04:28:41;6.00;99.90
26803;DHT22;14378;51.796;5.808;2023-02-16T04:30:42;6.00;99.90
26803;DHT22;14378;51.796;5.808;2023-02-16T04:32:44;6.00;99.90
26803;DHT22;14378;51.796;5.808;2023-02-16T04:34:45;6.00;99.90
26803;DHT22;14378;51.796;5.808;2023-02-16T04:36:46;6.00;99.90
26803;DHT22;14378;51.796;5.808;2023-02-16T04:38:47;6.00;99.90
26803;DHT22;14378;51.796;5.808;2023-02-16T04:40:48;6.10;99.90
26803;DHT22;14378;51.796;5.808;2023-02-16T04:42:49;6.10;99.90
26803;DHT22;14378;51.796;5.808;2023-02-16T04:44:50;6.10;99.90
26803;DHT22;14378;51.796;5.808;2023-02-16T04:46:52;6.10;99.90
26803;DHT22;14378;51.796;5.808;2023-02-16T04:48:53;6.10;99.90
26803;DHT22;14378;51.796;5.808;2023-02-16T04:50:54;6.10;99.90
26803;DHT22;14378;51.796;5.808;2023-02-16T04:52:54;6.10;99.90
26803;DHT22;14378;51.796;5.808;2023-02-16T04:54:55;6.10;99.90
26803;DHT22;14378;51.796;5.808;2023-02-16T04:56:56;6.20;99.90
26803;DHT22;14378;51.796;5.808;2023-02-16T04:58:57;6.20;99.90
26803;DHT22;14378;51.796;5.808;2023-02-16T05:00:58;6.20;99.90
26803;DHT22;14378;51.796;5.808;2023-02-16T05:02:59;6.20;99.90
26803;DHT22;14378;51.796;5.808;2023-02-16T05:05:00;6.20;99.90
26803;DHT22;14378;51.796;5.808;2023-02-16T05:07:01;6.20;99.90
26803;DHT22;14378;51.796;5.808;2023-02-16T05:09:04;6.20;99.90
26803;DHT22;14378;51.796;5.808;2023-02-16T05:11:06;6.20;99.90
26803;DHT22;14378;51.796;5.808;2023-02-16T05:13:28;6.20;99.90
26803;DHT22;14378;51.796;5.808;2023-02-16T05:15:48;6.30;99.90
26803;DHT22;14378;51.796;5.808;2023-02-16T05:17:49;6.30;99.90
26803;DHT22;14378;51.796;5.808;2023-02-16T05:19:55;6.30;99.90
26803;DHT22;14378;51.796;5.808;2023-02-16T05:21:56;6.30;99.90
26803;DHT22;14378;51.796;5.808;2023-02-16T05:24:06;6.30;99.90
26803;DHT22;14378;51.796;5.808;2023-02-16T05:26:07;6.30;99.90
26803;DHT22;14378;51.796;5.808;2023-02-16T05:28:08;6.30;99.90
26803;DHT22;14378;51.796;5.808;2023-02-16T05:30:09;6.30;99.90
26803;DHT22;14378;51.796;5.808;2023-02-16T05:32:12;6.30;99.90
26803;DHT22;14378;51.796;5.808;2023-02-16T05:34:16;6.30;99.90
26803;DHT22;14378;51.796;5.808;2023-02-16T05:36:18;6.30;99.90
26803;DHT22;14378;51.796;5.808;2023-02-16T05:38:22;6.30;99.90
26803;DHT22;14378;51.796;5.808;2023-02-16T05:40:23;6.30;99.90
26803;DHT22;14378;51.796;5.808;2023-02-16T05:42:24;6.30;99.90
26803;DHT22;14378;51.796;5.808;2023-02-16T05:44:25;6.40;99.90
26803;DHT22;14378;51.796;5.808;2023-02-16T05:46:27;6.40;99.90
26803;DHT22;14378;51.796;5.808;2023-02-16T05:48:32;6.40;99.90
26803;DHT22;14378;51.796;5.808;2023-02-16T05:50:33;6.40;99.90
26803;DHT22;14378;51.796;5.808;2023-02-16T05:52:37;6.40;99.90
26803;DHT22;14378;51.796;5.808;2023-02-16T05:54:38;6.50;99.90
26803;DHT22;14378;51.796;5.808;2023-02-16T05:56:39;6.50;99.90
26803;DHT22;14378;51.796;5.808;2023-02-16T05:58:40;6.50;99.90
26803;DHT22;14378;51.796;5.808;2023-02-16T06:00:40;6.50;99.90
26803;DHT22;14378;51.796;5.808;2023-02-16T06:02:41;6.50;99.90
26803;DHT22;14378;51.796;5.808;2023-02-16T06:04:50;6.50;99.90
26803;DHT22;14378;51.796;5.808;2023-02-16T06:06:51;6.50;99.90
26803;DHT22;14378;51.796;5.808;2023-02-16T06:08:53;6.50;99.90
26803;DHT22;14378;51.796;5.808;2023-02-16T06:10:55;6.50;99.90
26803;DHT22;14378;51.796;5.808;2023-02-16T06:13:00;6.60;99.90
26803;DHT22;14378;51.796;5.808;2023-02-16T06:15:01;6.60;99.90
26803;DHT22;14378;51.796;5.808;2023-02-16T06:17:03;6.60;99.90
26803;DHT22;14378;51.796;5.808;2023-02-16T06:19:04;6.60;99.90
26803;DHT22;14378;51.796;5.808;2023-02-16T06:21:06;6.60;99.90
26803;DHT22;14378;51.796;5.808;2023-02-16T06:23:09;6.60;99.90
26803;DHT22;14378;51.796;5.808;2023-02-16T06:25:14;6.60;99.90
26803;DHT22;14378;51.796;5.808;2023-02-16T06:27:15;6.70;99.90
26803;DHT22;14378;51.796;5.808;2023-02-16T06:29:16;6.70;99.90
26803;DHT22;14378;51.796;5.808;2023-02-16T06:31:17;6.70;99.90
26803;DHT22;14378;51.796;5.808;2023-02-16T06:33:18;6.70;99.90
26803;DHT22;14378;51.796;5.808;2023-02-16T06:35:18;6.80;99.90
26803;DHT22;14378;51.796;5.808;2023-02-16T06:37:19;6.80;99.90
26803;DHT22;14378;51.796;5.808;2023-02-16T06:39:21;6.70;99.90
26803;DHT22;14378;51.796;5.808;2023-02-16T06:41:22;6.70;99.90
26803;DHT22;14378;51.796;5.808;2023-02-16T06:43:39;6.70;99.90
26803;DHT22;14378;51.796;5.808;2023-02-16T06:45:40;6.70;99.90
26803;DHT22;14378;51.796;5.808;2023-02-16T06:47:41;6.70;99.90
26803;DHT22;14378;51.796;5.808;2023-02-16T06:49:43;6.70;99.90
26803;DHT22;14378;51.796;5.808;2023-02-16T06:51:47;6.70;99.90
26803;DHT22;14378;51.796;5.808;2023-02-16T06:53:48;6.80;99.90
26803;DHT22;14378;51.796;5.808;2023-02-16T06:55:50;6.80;99.90
26803;DHT22;14378;51.796;5.808;2023-02-16T06:57:51;6.80;99.90
26803;DHT22;14378;51.796;5.808;2023-02-16T06:59:52;6.80;99.90
26803;DHT22;14378;51.796;5.808;2023-02-16T07:01:53;6.80;99.90
26803;DHT22;14378;51.796;5.808;2023-02-16T07:03:55;6.90;99.90
26803;DHT22;14378;51.796;5.808;2023-02-16T07:05:57;6.90;99.90
26803;DHT22;14378;51.796;5.808;2023-02-16T07:07:57;6.90;99.90
26803;DHT22;14378;51.796;5.808;2023-02-16T07:09:58;6.90;99.90
26803;DHT22;14378;51.796;5.808;2023-02-16T07:11:59;6.90;99.90
26803;DHT22;14378;51.796;5.808;2023-02-16T07:14:00;6.90;99.90
26803;DHT22;14378;51.796;5.808;2023-02-16T07:16:05;6.90;99.90
26803;DHT22;14378;51.796;5.808;2023-02-16T07:18:06;7.00;99.90
26803;DHT22;14378;51.796;5.808;2023-02-16T07:20:08;7.00;99.90
26803;DHT22;14378;51.796;5.808;2023-02-16T07:22:09;7.00;99.90
26803;DHT22;14378;51.796;5.808;2023-02-16T07:24:10;7.00;99.90
26803;DHT22;14378;51.796;5.808;2023-02-16T07:26:11;7.00;99.90
26803;DHT22;14378;51.796;5.808;2023-02-16T07:28:12;7.00;99.90
26803;DHT22;14378;51.796;5.808;2023-02-16T07:30:16;7.00;99.90
26803;DHT22;14378;51.796;5.808;2023-02-16T07:32:17;7.00;99.90
26803;DHT22;14378;51.796;5.808;2023-02-16T07:34:18;7.00;99.90
26803;DHT22;14378;51.796;5.808;2023-02-16T07:36:19;7.00;99.90
26803;DHT22;14378;51.796;5.808;2023-02-16T07:38:20;7.00;99.90
26803;DHT22;14378;51.796;5.808;2023-02-16T07:40:21;7.00;99.90
26803;DHT22;14378;51.796;5.808;2023-02-16T07:42:22;7.00;99.90
26803;DHT22;14378;51.796;5.808;2023-02-16T07:44:25;7.00;99.90
26803;DHT22;14378;51.796;5.808;2023-02-16T07:46:26;7.00;99.90
26803;DHT22;14378;51.796;5.808;2023-02-16T07:48:27;7.00;99.90
26803;DHT22;14378;51.796;5.808;2023-02-16T07:50:28;7.10;99.90
26803;DHT22;14378;51.796;5.808;2023-02-16T07:52:29;7.10;99.90
26803;DHT22;14378;51.796;5.808;2023-02-16T07:54:31;7.10;99.90
26803;DHT22;14378;51.796;5.808;2023-02-16T07:56:33;7.10;99.90
26803;DHT22;14378;51.796;5.808;2023-02-16T07:58:34;7.20;99.90
26803;DHT22;14378;51.796;5.808;2023-02-16T08:00:36;7.20;99.90
26803;DHT22;14378;51.796;5.808;2023-02-16T08:02:39;7.20;99.90
26803;DHT22;14378;51.796;5.808;2023-02-16T08:04:40;7.30;99.90
26803;DHT22;14378;51.796;5.808;2023-02-16T08:06:42;7.30;99.90
26803;DHT22;14378;51.796;5.808;2023-02-16T08:08:46;7.30;99.90
26803;DHT22;14378;51.796;5.808;2023-02-16T08:10:47;7.30;99.90
26803;DHT22;14378;51.796;5.808;2023-02-16T08:12:48;7.40;99.90
26803;DHT22;14378;51.796;5.808;2023-02-16T08:14:49;7.40;99.90
26803;DHT22;14378;51.796;5.808;2023-02-16T08:16:50;7.50;99.90
26803;DHT22;14378;51.796;5.808;2023-02-16T08:18:51;7.50;99.90
26803;DHT22;14378;51.796;5.808;2023-02-16T08:20:53;7.50;99.90
26803;DHT22;14378;51.796;5.808;2023-02-16T08:22:53;7.50;99.90
26803;DHT22;14378;51.796;5.808;2023-02-16T08:24:54;7.50;99.90
26803;DHT22;14378;51.796;5.808;2023-02-16T08:26:55;7.50;99.90
26803;DHT22;14378;51.796;5.808;2023-02-16T08:28:57;7.50;99.90
26803;DHT22;14378;51.796;5.808;2023-02-16T08:31:04;7.60;99.90
26803;DHT22;14378;51.796;5.808;2023-02-16T08:33:06;7.60;99.90
26803;DHT22;14378;51.796;5.808;2023-02-16T08:35:07;7.60;99.90
26803;DHT22;14378;51.796;5.808;2023-02-16T08:37:11;7.60;99.90
26803;DHT22;14378;51.796;5.808;2023-02-16T08:39:16;7.60;99.90
26803;DHT22;14378;51.796;5.808;2023-02-16T08:41:21;7.70;99.90
26803;DHT22;14378;51.796;5.808;2023-02-16T08:43:26;7.70;99.90
26803;DHT22;14378;51.796;5.808;2023-02-16T08:45:27;7.70;99.90
26803;DHT22;14378;51.796;5.808;2023-02-16T08:47:30;7.70;99.90
26803;DHT22;14378;51.796;5.808;2023-02-16T08:49:31;7.70;99.90
26803;DHT22;14378;51.796;5.808;2023-02-16T08:51:35;7.70;99.90
26803;DHT22;14378;51.796;5.808;2023-02-16T08:53:37;7.80;99.90
26803;DHT22;14378;51.796;5.808;2023-02-16T08:55:38;7.80;99.90
26803;DHT22;14378;51.796;5.808;2023-02-16T08:57:39;7.80;99.90
26803;DHT22;14378;51.796;5.808;2023-02-16T08:59:40;7.80;99.90
26803;DHT22;14378;51.796;5.808;2023-02-16T09:01:42;7.90;99.90
26803;DHT22;14378;51.796;5.808;2023-02-16T09:03:44;7.90;99.90
26803;DHT22;14378;51.796;5.808;2023-02-16T09:05:50;7.90;99.90
26803;DHT22;14378;51.796;5.808;2023-02-16T09:07:52;7.90;99.90
26803;DHT22;14378;51.796;5.808;2023-02-16T09:09:53;8.00;99.90
26803;DHT22;14378;51.796;5.808;2023-02-16T09:11:55;8.10;99.90
26803;DHT22;14378;51.796;5.808;2023-02-16T09:14:00;8.10;99.90
26803;DHT22;14378;51.796;5.808;2023-02-16T09:18:38;8.10;99.90
26803;DHT22;14378;51.796;5.808;2023-02-16T09:20:44;8.20;99.90
26803;DHT22;14378;51.796;5.808;2023-02-16T09:22:45;8.20;99.90
26803;DHT22;14378;51.796;5.808;2023-02-16T09:24:47;8.20;99.90
26803;DHT22;14378;51.796;5.808;2023-02-16T09:26:48;8.30;99.90
26803;DHT22;14378;51.796;5.808;2023-02-16T09:28:49;8.30;99.90
26803;DHT22;14378;51.796;5.808;2023-02-16T09:30:51;8.30;99.90
26803;DHT22;14378;51.796;5.808;2023-02-16T09:32:59;8.30;99.90
26803;DHT22;14378;51.796;5.808;2023-02-16T09:35:01;8.30;99.90
26803;DHT22;14378;51.796;5.808;2023-02-16T09:37:02;8.40;99.90
26803;DHT22;14378;51.796;5.808;2023-02-16T09:39:03;8.40;99.90
26803;DHT22;14378;51.796;5.808;2023-02-16T09:43:44;8.50;99.90
26803;DHT22;14378;51.796;5.808;2023-02-16T09:45:49;8.50;99.90
26803;DHT22;14378;51.796;5.808;2023-02-16T09:47:52;8.60;99.90
26803;DHT22;14378;51.796;5.808;2023-02-16T09:49:56;8.60;99.90
26803;DHT22;14378;51.796;5.808;2023-02-16T09:52:03;8.60;99.90
26803;DHT22;14378;51.796;5.808;2023-02-16T09:56:39;8.70;99.90
26803;DHT22;14378;51.796;5.808;2023-02-16T10:03:59;8.80;99.90
26803;DHT22;14378;51.796;5.808;2023-02-16T10:08:52;8.80;99.90
26803;DHT22;14378;51.796;5.808;2023-02-16T10:13:03;8.90;99.90
26803;DHT22;14378;51.796;5.808;2023-02-16T10:15:28;8.90;99.90
26803;DHT22;14378;51.796;5.808;2023-02-16T10:22:41;9.00;99.90
26803;DHT22;14378;51.796;5.808;2023-02-16T10:27:10;9.10;99.90
26803;DHT22;14378;51.796;5.808;2023-02-16T10:29:19;9.10;99.90
26803;DHT22;14378;51.796;5.808;2023-02-16T10:36:18;9.10;99.90
26803;DHT22;14378;51.796;5.808;2023-02-16T10:38:45;9.00;99.90
26803;DHT22;14378;51.796;5.808;2023-02-16T10:43:38;9.00;99.90
26803;DHT22;14378;51.796;5.808;2023-02-16T10:47:46;9.00;99.90
26803;DHT22;14378;51.796;5.808;2023-02-16T10:49:48;9.00;99.90
26803;DHT22;14378;51.796;5.808;2023-02-16T10:51:51;9.00;99.90
26803;DHT22;14378;51.796;5.808;2023-02-16T10:54:04;9.00;99.90
26803;DHT22;14378;51.796;5.808;2023-02-16T10:56:25;9.00;99.90
26803;DHT22;14378;51.796;5.808;2023-02-16T10:58:37;8.90;99.90
26803;DHT22;14378;51.796;5.808;2023-02-16T11:01:00;9.00;99.90
26803;DHT22;14378;51.796;5.808;2023-02-16T11:03:05;8.90;99.90
26803;DHT22;14378;51.796;5.808;2023-02-16T11:07:28;8.90;99.90
26803;DHT22;14378;51.796;5.808;2023-02-16T11:09:31;8.90;99.90
26803;DHT22;14378;51.796;5.808;2023-02-16T11:11:37;9.00;99.90
26803;DHT22;14378;51.796;5.808;2023-02-16T11:13:39;8.90;99.90
26803;DHT22;14378;51.796;5.808;2023-02-16T11:15:40;9.00;99.90
26803;DHT22;14378;51.796;5.808;2023-02-16T11:17:58;8.90;99.90
26803;DHT22;14378;51.796;5.808;2023-02-16T11:20:06;8.90;99.90
26803;DHT22;14378;51.796;5.808;2023-02-16T11:22:36;8.90;99.90
26803;DHT22;14378;51.796;5.808;2023-02-16T11:24:38;8.90;99.90
26803;DHT22;14378;51.796;5.808;2023-02-16T11:26:39;8.90;99.90
26803;DHT22;14378;51.796;5.808;2023-02-16T11:28:51;9.00;99.90
26803;DHT22;14378;51.796;5.808;2023-02-16T11:31:02;8.90;99.90
26803;DHT22;14378;51.796;5.808;2023-02-16T11:33:22;9.00;99.90
26803;DHT22;14378;51.796;5.808;2023-02-16T11:35:23;9.00;99.90
26803;DHT22;14378;51.796;5.808;2023-02-16T11:37:33;9.00;99.90
26803;DHT22;14378;51.796;5.808;2023-02-16T11:39:40;9.00;99.90
26803;DHT22;14378;51.796;5.808;2023-02-16T11:42:05;9.00;99.90
26803;DHT22;14378;51.796;5.808;2023-02-16T11:46:25;9.10;99.90
26803;DHT22;14378;51.796;5.808;2023-02-16T11:48:31;9.10;99.90
26803;DHT22;14378;51.796;5.808;2023-02-16T11:50:37;9.10;99.90
26803;DHT22;14378;51.796;5.808;2023-02-16T11:52:39;9.10;99.90
26803;DHT22;14378;51.796;5.808;2023-02-16T11:54:56;9.10;99.90
26803;DHT22;14378;51.796;5.808;2023-02-16T11:57:05;9.10;99.90
26803;DHT22;14378;51.796;5.808;2023-02-16T11:59:17;9.10;99.90
26803;DHT22;14378;51.796;5.808;2023-02-16T12:01:21;9.10;99.90
26803;DHT22;14378;51.796;5.808;2023-02-16T12:07:36;9.20;99.90
26803;DHT22;14378;51.796;5.808;2023-02-16T12:10:02;9.20;99.90
26803;DHT22;14378;51.796;5.808;2023-02-16T12:15:16;9.30;99.90
26803;DHT22;14378;51.796;5.808;2023-02-16T12:17:32;9.40;99.90
26803;DHT22;14378;51.796;5.808;2023-02-16T12:19:40;9.50;99.90
26803;DHT22;14378;51.796;5.808;2023-02-16T12:21:51;9.50;99.90
26803;DHT22;14378;51.796;5.808;2023-02-16T12:44:38;9.90;99.90
26803;DHT22;14378;51.796;5.808;2023-02-16T12:46:42;10.00;99.90
26803;DHT22;14378;51.796;5.808;2023-02-16T12:49:01;10.10;99.90
26803;DHT22;14378;51.796;5.808;2023-02-16T12:51:09;10.20;99.90
26803;DHT22;14378;51.796;5.808;2023-02-16T12:53:18;10.30;99.90
26803;DHT22;14378;51.796;5.808;2023-02-16T12:55:35;10.50;99.90
26803;DHT22;14378;51.796;5.808;2023-02-16T12:57:43;10.70;99.90
26803;DHT22;14378;51.796;5.808;2023-02-16T12:59:50;11.00;99.90
26803;DHT22;14378;51.796;5.808;2023-02-16T13:01:58;11.20;99.90
26803;DHT22;14378;51.796;5.808;2023-02-16T13:08:59;11.70;99.90
26803;DHT22;14378;51.796;5.808;2023-02-16T13:13:31;11.80;99.90
26803;DHT22;14378;51.796;5.808;2023-02-16T13:15:39;11.90;99.90
26803;DHT22;14378;51.796;5.808;2023-02-16T13:20:19;12.00;99.90
26803;DHT22;14378;51.796;5.808;2023-02-16T13:33:24;12.10;99.90
26803;DHT22;14378;51.796;5.808;2023-02-16T13:45:18;12.20;99.90
26803;DHT22;14378;51.796;5.808;2023-02-16T13:47:32;12.20;99.90
26803;DHT22;14378;51.796;5.808;2023-02-16T13:49:38;12.20;99.90
26803;DHT22;14378;51.796;5.808;2023-02-16T13:51:47;12.30;99.90
26803;DHT22;14378;51.796;5.808;2023-02-16T13:53:58;12.30;99.90
26803;DHT22;14378;51.796;5.808;2023-02-16T13:58:30;12.30;99.90
26803;DHT22;14378;51.796;5.808;2023-02-16T14:02:53;12.30;99.90
26803;DHT22;14378;51.796;5.808;2023-02-16T14:11:15;12.20;99.90
26803;DHT22;14378;51.796;5.808;2023-02-16T14:15:29;12.30;99.90
26803;DHT22;14378;51.796;5.808;2023-02-16T14:17:34;12.40;99.90
26803;DHT22;14378;51.796;5.808;2023-02-16T14:19:35;12.40;99.90
26803;DHT22;14378;51.796;5.808;2023-02-16T14:21:42;12.50;99.90
26803;DHT22;14378;51.796;5.808;2023-02-16T14:23:53;12.40;99.90
26803;DHT22;14378;51.796;5.808;2023-02-16T14:26:06;12.50;99.90
26803;DHT22;14378;51.796;5.808;2023-02-16T14:31:34;12.50;99.90
26803;DHT22;14378;51.796;5.808;2023-02-16T14:35:26;12.60;99.90
26803;DHT22;14378;51.796;5.808;2023-02-16T14:39:54;12.60;99.90
26803;DHT22;14378;51.796;5.808;2023-02-16T14:42:16;12.70;99.90
26803;DHT22;14378;51.796;5.808;2023-02-16T14:47:58;12.80;99.90
26803;DHT22;14378;51.796;5.808;2023-02-16T14:50:00;12.80;99.90
26803;DHT22;14378;51.796;5.808;2023-02-16T14:56:50;12.80;99.90
26803;DHT22;14378;51.796;5.808;2023-02-16T14:59:06;12.80;99.90
26803;DHT22;14378;51.796;5.808;2023-02-16T15:03:23;12.80;99.90
26803;DHT22;14378;51.796;5.808;2023-02-16T15:05:30;12.70;99.90
26803;DHT22;14378;51.796;5.808;2023-02-16T15:07:32;12.70;99.90
26803;DHT22;14378;51.796;5.808;2023-02-16T15:09:35;12.70;99.90
26803;DHT22;14378;51.796;5.808;2023-02-16T15:11:52;12.60;99.90
26803;DHT22;14378;51.796;5.808;2023-02-16T15:14:14;12.60;99.90
26803;DHT22;14378;51.796;5.808;2023-02-16T15:16:15;12.60;99.90
26803;DHT22;14378;51.796;5.808;2023-02-16T15:18:23;12.60;99.90
26803;DHT22;14378;51.796;5.808;2023-02-16T15:20:34;12.70;99.90
26803;DHT22;14378;51.796;5.808;2023-02-16T15:22:36;12.80;99.90
26803;DHT22;14378;51.796;5.808;2023-02-16T15:25:05;12.90;99.90
26803;DHT22;14378;51.796;5.808;2023-02-16T15:27:24;12.90;99.90
26803;DHT22;14378;51.796;5.808;2023-02-16T15:29:26;13.00;99.90
26803;DHT22;14378;51.796;5.808;2023-02-16T15:31:32;13.00;99.90
26803;DHT22;14378;51.796;5.808;2023-02-16T15:33:37;13.00;99.90
26803;DHT22;14378;51.796;5.808;2023-02-16T15:35:41;13.00;99.90
26803;DHT22;14378;51.796;5.808;2023-02-16T15:37:42;12.90;99.90
26803;DHT22;14378;51.796;5.808;2023-02-16T15:39:44;12.90;99.90
26803;DHT22;14378;51.796;5.808;2023-02-16T15:41:48;12.90;99.90
26803;DHT22;14378;51.796;5.808;2023-02-16T15:43:53;12.90;99.90
26803;DHT22;14378;51.796;5.808;2023-02-16T15:45:59;12.90;99.90
26803;DHT22;14378;51.796;5.808;2023-02-16T15:48:21;12.90;99.90
26803;DHT22;14378;51.796;5.808;2023-02-16T15:50:23;12.80;99.90
26803;DHT22;14378;51.796;5.808;2023-02-16T15:52:32;12.90;99.90
26803;DHT22;14378;51.796;5.808;2023-02-16T15:54:35;12.80;99.90
26803;DHT22;14378;51.796;5.808;2023-02-16T15:56:42;12.80;99.90
26803;DHT22;14378;51.796;5.808;2023-02-16T15:58:45;12.80;99.90
26803;DHT22;14378;51.796;5.808;2023-02-16T16:00:46;12.80;99.90
26803;DHT22;14378;51.796;5.808;2023-02-16T16:02:51;12.70;99.90
26803;DHT22;14378;51.796;5.808;2023-02-16T16:04:58;12.70;99.90
26803;DHT22;14378;51.796;5.808;2023-02-16T16:07:00;12.70;99.90
26803;DHT22;14378;51.796;5.808;2023-02-16T16:09:03;12.70;99.90
26803;DHT22;14378;51.796;5.808;2023-02-16T16:11:08;12.60;99.90